createdAt,value
2018-06-23T00:00:45.407Z,23.60
2018-06-23T00:02:16.975Z,24.60
2018-06-23T00:03:48.546Z,22.00
2018-06-23T00:05:20.116Z,25.20
2018-06-23T00:06:51.687Z,22.50
2018-06-23T00:08:23.257Z,24.80
2018-06-23T00:09:54.828Z,23.90
2018-06-23T00:11:26.399Z,23.30
2018-06-23T00:12:58.220Z,22.50
2018-06-23T00:14:29.540Z,23.60
2018-06-23T00:16:01.111Z,24.70
2018-06-23T00:17:32.681Z,25.00
2018-06-23T00:19:04.251Z,22.10
2018-06-23T00:20:35.821Z,23.10
2018-06-23T00:22:07.392Z,23.60
2018-06-23T00:23:38.963Z,25.40
2018-06-23T00:25:10.533Z,27.40
2018-06-23T00:26:42.104Z,25.40
2018-06-23T00:28:13.674Z,29.20
2018-06-23T00:29:45.244Z,28.10
2018-06-23T00:31:16.915Z,25.00
2018-06-23T00:32:48.385Z,24.40
2018-06-23T00:34:19.956Z,24.80
2018-06-23T00:35:51.526Z,25.10
2018-06-23T00:37:23.096Z,26.40
2018-06-23T00:38:54.667Z,33.30
2018-06-23T00:40:26.238Z,30.50
2018-06-23T00:41:57.807Z,28.60
2018-06-23T00:43:29.480Z,27.70
2018-06-23T00:45:00.949Z,27.40
2018-06-23T00:46:32.519Z,27.00
2018-06-23T00:48:04.090Z,27.40
2018-06-23T00:49:35.760Z,30.10
2018-06-23T00:51:07.231Z,27.70
2018-06-23T00:52:38.802Z,26.80
2018-06-23T00:54:10.371Z,30.70
2018-06-23T00:55:41.945Z,32.20
2018-06-23T00:57:13.513Z,32.30
2018-06-23T00:58:45.084Z,31.10
2018-06-23T01:00:16.653Z,30.40
2018-06-23T01:01:48.226Z,29.80
2018-06-23T01:03:19.793Z,29.20
2018-06-23T01:04:51.365Z,30.00
2018-06-23T01:06:22.934Z,30.90
2018-06-23T01:07:54.604Z,31.20
2018-06-23T01:09:26.078Z,30.90
2018-06-23T01:10:57.646Z,36.90
2018-06-23T01:12:29.215Z,35.90
2018-06-23T01:14:00.885Z,41.00
2018-06-23T01:15:32.355Z,39.10
2018-06-23T01:17:03.926Z,38.10
2018-06-23T01:18:35.496Z,36.30
2018-06-23T01:20:07.066Z,33.90
2018-06-23T01:21:38.636Z,33.70
2018-06-23T01:23:10.207Z,30.40
2018-06-23T01:24:41.778Z,34.20
2018-06-23T01:26:13.448Z,35.60
2018-06-23T01:27:44.918Z,38.20
2018-06-23T01:29:16.488Z,37.30
2018-06-23T01:30:48.060Z,34.60
2018-06-23T01:32:19.629Z,35.80
2018-06-23T01:33:51.206Z,37.80
2018-06-23T01:35:22.770Z,35.40
2018-06-23T01:36:54.340Z,36.20
2018-06-23T01:38:25.912Z,37.80
2018-06-23T01:39:57.481Z,36.20
2018-06-23T01:41:29.051Z,38.70
2018-06-23T01:43:00.621Z,38.10
2018-06-23T01:44:32.442Z,41.10
2018-06-23T01:46:03.762Z,39.50
2018-06-23T01:47:35.332Z,39.00
2018-06-23T01:49:06.903Z,38.20
2018-06-23T01:50:38.473Z,42.50
2018-06-23T01:52:10.043Z,42.00
2018-06-23T01:53:41.614Z,39.80
2018-06-23T01:55:13.184Z,36.90
2018-06-23T01:56:44.754Z,36.50
2018-06-23T01:58:16.323Z,33.20
2018-06-23T01:59:47.894Z,35.40
2018-06-23T02:01:19.465Z,35.20
2018-06-23T02:02:51.585Z,38.60
2018-06-23T02:04:22.605Z,37.40
2018-06-23T02:05:54.175Z,35.80
2018-06-23T02:07:25.744Z,34.80
2018-06-23T02:08:57.315Z,33.40
2018-06-23T02:10:28.885Z,35.40
2018-06-23T02:12:00.456Z,36.80
2018-06-23T02:13:32.026Z,38.00
2018-06-23T02:15:03.595Z,36.80
2018-06-23T02:16:35.166Z,35.40
2018-06-23T02:18:06.736Z,41.60
2018-06-23T02:19:38.307Z,41.90
2018-06-23T02:21:09.977Z,35.90
2018-06-23T02:22:46.192Z,38.10
2018-06-23T02:24:13.017Z,38.50
2018-06-23T02:25:50.117Z,37.00
2018-06-23T02:27:21.225Z,39.60
2018-06-23T02:28:47.728Z,39.30
2018-06-23T02:30:24.159Z,41.90
2018-06-23T02:31:50.873Z,47.50
2018-06-23T02:33:23.677Z,38.00
2018-06-23T02:34:54.011Z,43.60
2018-06-23T02:36:25.578Z,52.00
2018-06-23T02:37:57.151Z,41.50
2018-06-23T02:39:28.918Z,40.40
2018-06-23T02:41:00.288Z,43.60
2018-06-23T02:42:31.861Z,49.00
2018-06-23T02:44:03.432Z,47.40
2018-06-23T02:45:34.998Z,42.10
2018-06-23T02:47:06.568Z,45.30
2018-06-23T02:48:38.138Z,47.40
2018-06-23T02:50:09.708Z,53.60
2018-06-23T02:51:41.277Z,52.60
2018-06-23T02:53:12.847Z,48.90
2018-06-23T02:54:44.417Z,56.20
2018-06-23T02:56:15.987Z,48.30
2018-06-23T02:57:47.812Z,52.80
2018-06-23T02:59:19.135Z,53.30
2018-06-23T03:00:50.696Z,53.40
2018-06-23T03:02:22.270Z,63.10
2018-06-23T03:03:53.836Z,61.40
2018-06-23T03:05:25.406Z,57.60
2018-06-23T03:06:56.977Z,61.10
2018-06-23T03:08:28.547Z,63.90
2018-06-23T03:10:00.216Z,67.50
2018-06-23T03:11:31.685Z,62.90
2018-06-23T03:13:03.254Z,62.70
2018-06-23T03:14:34.824Z,63.20
2018-06-23T03:16:06.504Z,71.30
2018-06-23T03:17:37.964Z,81.90
2018-06-23T03:19:09.534Z,72.00
2018-06-23T03:20:41.103Z,68.30
2018-06-23T03:22:12.673Z,67.70
2018-06-23T03:23:44.246Z,68.90
2018-06-23T03:25:15.811Z,79.30
2018-06-23T03:26:47.381Z,74.00
2018-06-23T03:28:18.951Z,86.10
2018-06-23T03:29:50.526Z,93.00
2018-06-23T03:31:22.090Z,80.90
2018-06-23T03:32:53.659Z,81.50
2018-06-23T03:34:25.329Z,72.40
2018-06-23T03:35:56.803Z,73.40
2018-06-23T03:37:28.368Z,78.00
2018-06-23T03:38:59.938Z,85.20
2018-06-23T03:40:31.607Z,75.10
2018-06-23T03:42:03.077Z,84.10
2018-06-23T03:43:34.646Z,87.40
2018-06-23T03:45:06.216Z,82.30
2018-06-23T03:46:37.785Z,84.70
2018-06-23T03:48:09.355Z,82.40
2018-06-23T03:49:40.924Z,81.70
2018-06-23T03:51:12.494Z,80.70
2018-06-23T03:52:44.164Z,81.00
2018-06-23T03:54:15.638Z,89.30
2018-06-23T03:55:47.203Z,86.90
2018-06-23T03:57:18.772Z,95.80
2018-06-23T03:58:50.444Z,88.80
2018-06-23T04:00:21.910Z,87.60
2018-06-23T04:01:53.480Z,84.30
2018-06-23T04:03:25.049Z,86.10
2018-06-23T04:04:56.618Z,81.50
2018-06-23T04:06:28.187Z,93.70
2018-06-23T04:07:59.757Z,90.40
2018-06-23T04:09:31.326Z,91.90
2018-06-23T04:11:02.997Z,85.80
2018-06-23T04:12:34.466Z,101.50
2018-06-23T04:14:06.034Z,101.60
2018-06-23T04:15:37.603Z,96.90
2018-06-23T04:17:09.174Z,95.20
2018-06-23T04:18:40.744Z,94.70
2018-06-23T04:20:12.311Z,96.60
2018-06-23T04:21:43.880Z,107.30
2018-06-23T04:23:15.450Z,104.90
2018-06-23T04:24:47.020Z,89.70
2018-06-23T04:26:18.589Z,95.00
2018-06-23T04:27:50.157Z,100.30
2018-06-23T04:29:21.978Z,95.70
2018-06-23T04:30:53.296Z,88.30
2018-06-23T04:32:24.866Z,95.10
2018-06-23T04:33:56.435Z,104.60
2018-06-23T04:35:28.004Z,101.90
2018-06-23T04:36:59.574Z,92.80
2018-06-23T04:38:31.143Z,82.80
2018-06-23T04:40:02.712Z,89.50
2018-06-23T04:41:34.385Z,88.10
2018-06-23T04:43:05.851Z,104.60
2018-06-23T04:44:37.420Z,106.70
2018-06-23T04:46:08.989Z,109.40
2018-06-23T04:47:40.659Z,106.50
2018-06-23T04:49:12.128Z,108.20
2018-06-23T04:50:43.697Z,98.80
2018-06-23T04:52:15.266Z,99.30
2018-06-23T04:53:46.836Z,103.50
2018-06-23T04:55:18.405Z,111.40
2018-06-23T04:56:49.975Z,109.10
2018-06-23T04:58:21.543Z,110.20
2018-06-23T04:59:53.212Z,106.80
2018-06-23T05:01:24.682Z,104.20
2018-06-23T05:02:56.252Z,98.20
2018-06-23T05:04:27.820Z,95.10
2018-06-23T05:05:59.490Z,101.60
2018-06-23T05:07:30.958Z,113.30
2018-06-23T05:09:02.528Z,112.70
2018-06-23T05:10:34.099Z,107.00
2018-06-23T05:12:05.767Z,108.20
2018-06-23T05:13:37.237Z,115.00
2018-06-23T05:15:08.809Z,105.10
2018-06-23T05:16:40.374Z,110.20
2018-06-23T05:18:11.943Z,105.30
2018-06-23T05:19:43.516Z,113.90
2018-06-23T05:21:15.082Z,105.50
2018-06-23T05:22:46.650Z,104.50
2018-06-23T05:24:18.319Z,102.50
2018-06-23T05:25:49.790Z,109.80
2018-06-23T05:27:21.358Z,106.20
2018-06-23T05:28:52.928Z,115.20
2018-06-23T05:30:24.597Z,114.00
2018-06-23T05:31:56.067Z,107.00
2018-06-23T05:33:27.634Z,102.90
2018-06-23T05:34:59.205Z,100.20
2018-06-23T05:36:30.772Z,105.20
2018-06-23T05:38:02.342Z,112.90
2018-06-23T05:39:33.911Z,106.10
2018-06-23T05:41:05.479Z,101.30
2018-06-23T05:42:37.249Z,115.10
2018-06-23T05:44:08.618Z,106.30
2018-06-23T05:45:40.186Z,111.90
2018-06-23T05:47:11.764Z,105.00
2018-06-23T05:48:43.324Z,93.90
2018-06-23T05:50:14.893Z,92.90
2018-06-23T05:51:46.463Z,99.60
2018-06-23T05:53:18.032Z,112.70
2018-06-23T05:54:49.601Z,108.30
2018-06-23T05:56:21.170Z,111.10
2018-06-23T05:57:52.739Z,112.60
2018-06-23T05:59:24.310Z,101.90
2018-06-23T06:00:56.128Z,104.00
2018-06-23T06:02:27.446Z,104.60
2018-06-23T06:03:59.015Z,102.70
2018-06-23T06:05:30.584Z,109.00
2018-06-23T06:07:02.188Z,106.80
2018-06-23T06:08:33.723Z,131.10
2018-06-23T06:10:05.290Z,115.00
2018-06-23T06:11:36.891Z,114.10
2018-06-23T06:13:08.529Z,113.00
2018-06-23T06:14:39.999Z,113.70
2018-06-23T06:16:11.570Z,117.70
2018-06-23T06:17:43.136Z,100.80
2018-06-23T06:19:14.804Z,109.10
2018-06-23T06:20:46.275Z,111.50
2018-06-23T06:22:17.842Z,109.90
2018-06-23T06:23:49.461Z,106.90
2018-06-23T06:25:20.980Z,102.40
2018-06-23T06:26:52.549Z,102.00
2018-06-23T06:28:24.118Z,95.50
2018-06-23T06:29:55.692Z,86.20
2018-06-23T06:31:27.356Z,87.20
2018-06-23T06:32:58.825Z,84.00
2018-06-23T06:34:30.396Z,88.40
2018-06-23T06:36:01.964Z,90.70
2018-06-23T06:37:33.632Z,89.00
2018-06-23T06:39:05.102Z,87.10
2018-06-23T06:40:36.671Z,85.00
2018-06-23T06:42:08.240Z,83.60
2018-06-23T06:43:39.809Z,78.50
2018-06-23T06:45:11.378Z,83.00
2018-06-23T06:46:42.947Z,83.60
2018-06-23T06:48:14.516Z,85.90
2018-06-23T06:49:46.213Z,85.80
2018-06-23T06:51:17.655Z,82.90
2018-06-23T06:52:49.224Z,78.80
2018-06-23T06:54:20.794Z,90.40
2018-06-23T06:55:52.463Z,85.00
2018-06-23T06:57:23.934Z,79.20
2018-06-23T06:58:55.502Z,71.90
2018-06-23T07:00:27.070Z,76.10
2018-06-23T07:01:58.741Z,70.00
2018-06-23T07:03:30.224Z,68.40
2018-06-23T07:05:01.782Z,73.90
2018-06-23T07:06:33.348Z,68.20
2018-06-23T07:08:04.917Z,67.10
2018-06-23T07:09:36.486Z,64.30
2018-06-23T07:11:08.056Z,63.00
2018-06-23T07:12:39.625Z,60.20
2018-06-23T07:14:11.294Z,65.60
2018-06-23T07:15:42.764Z,62.60
2018-06-23T07:17:14.333Z,64.70
2018-06-23T07:18:45.902Z,64.20
2018-06-23T07:20:17.572Z,63.40
2018-06-23T07:21:49.041Z,63.90
2018-06-23T07:23:20.611Z,62.00
2018-06-23T07:24:52.180Z,61.50
2018-06-23T07:26:23.753Z,63.70
2018-06-23T07:27:55.322Z,60.10
2018-06-23T07:29:26.889Z,65.10
2018-06-23T07:30:58.459Z,60.70
2018-06-23T07:32:30.228Z,60.90
2018-06-23T07:34:01.597Z,60.80
2018-06-23T07:35:33.167Z,57.90
2018-06-23T07:37:04.737Z,64.30
2018-06-23T07:38:36.306Z,58.30
2018-06-23T07:40:07.876Z,64.50
2018-06-23T07:41:39.446Z,64.80
2018-06-23T07:43:11.019Z,60.70
2018-06-23T07:44:42.684Z,61.70
2018-06-23T07:46:14.154Z,62.40
2018-06-23T07:47:45.724Z,62.80
2018-06-23T07:49:17.292Z,62.00
2018-06-23T07:50:49.263Z,64.70
2018-06-23T07:52:20.431Z,65.10
2018-06-23T07:53:52.000Z,63.90
2018-06-23T07:55:23.570Z,62.90
2018-06-23T07:56:55.143Z,61.80
2018-06-23T07:58:26.708Z,61.20
2018-06-23T07:59:58.282Z,59.50
2018-06-23T08:01:29.869Z,55.70
2018-06-23T08:03:01.516Z,57.00
2018-06-23T08:04:32.985Z,58.50
2018-06-23T08:06:04.555Z,55.40
2018-06-23T08:07:36.123Z,55.20
2018-06-23T08:09:07.792Z,54.70
2018-06-23T08:10:39.262Z,55.70
2018-06-23T08:12:10.836Z,54.60
2018-06-23T08:13:42.400Z,53.40
2018-06-23T08:15:14.070Z,52.80
2018-06-23T08:16:45.540Z,51.10
2018-06-23T08:18:17.110Z,51.90
2018-06-23T08:19:48.678Z,52.70
2018-06-23T08:21:20.248Z,52.20
2018-06-23T08:22:51.817Z,49.30
2018-06-23T08:24:23.386Z,49.70
2018-06-23T08:25:54.956Z,53.40
2018-06-23T08:27:26.625Z,50.00
2018-06-23T08:28:58.094Z,45.40
2018-06-23T08:30:29.663Z,44.70
2018-06-23T08:32:01.325Z,43.70
2018-06-23T08:33:32.902Z,43.20
2018-06-23T08:35:04.371Z,44.00
2018-06-23T08:36:35.942Z,43.00
2018-06-23T08:38:07.510Z,43.30
2018-06-23T08:39:39.079Z,43.20
2018-06-23T08:41:10.702Z,44.40
2018-06-23T08:42:42.217Z,45.40
2018-06-23T08:44:13.787Z,45.50
2018-06-23T08:45:45.556Z,48.20
2018-06-23T08:47:16.926Z,47.70
2018-06-23T08:48:48.496Z,45.40
2018-06-23T08:50:20.064Z,44.20
2018-06-23T08:51:51.635Z,43.20
2018-06-23T08:53:23.203Z,43.60
2018-06-23T08:54:54.772Z,44.30
2018-06-23T08:56:26.341Z,50.10
2018-06-23T08:57:57.910Z,46.90
2018-06-23T08:59:29.479Z,43.60
2018-06-23T09:01:01.049Z,39.30
2018-06-23T09:02:32.619Z,37.60
2018-06-23T09:04:04.442Z,36.40
2018-06-23T09:05:35.757Z,38.10
2018-06-23T09:07:07.327Z,35.80
2018-06-23T09:08:38.895Z,38.10
2018-06-23T09:10:10.465Z,43.30
2018-06-23T09:11:42.035Z,47.60
2018-06-23T09:13:13.606Z,49.10
2018-06-23T09:14:45.174Z,47.90
2018-06-23T09:16:16.843Z,49.00
2018-06-23T09:17:48.312Z,50.70
2018-06-23T09:19:19.882Z,53.40
2018-06-23T09:20:51.452Z,54.70
2018-06-23T09:22:23.121Z,61.00
2018-06-23T09:23:54.590Z,60.60
2018-06-23T09:25:26.172Z,56.60
2018-06-23T09:26:57.730Z,50.80
2018-06-23T09:28:29.297Z,45.90
2018-06-23T09:30:00.867Z,42.50
2018-06-23T09:31:32.436Z,37.30
2018-06-23T09:33:04.005Z,36.60
2018-06-23T09:34:35.712Z,38.30
2018-06-23T09:36:07.144Z,39.10
2018-06-23T09:37:38.714Z,37.40
2018-06-23T09:39:10.286Z,33.60
2018-06-23T09:40:41.952Z,33.80
2018-06-23T09:42:13.421Z,36.10
2018-06-23T09:43:44.991Z,33.80
2018-06-23T09:45:16.563Z,36.90
2018-06-23T09:46:48.130Z,35.60
2018-06-23T09:48:19.700Z,42.80
2018-06-23T09:49:51.271Z,42.00
2018-06-23T09:51:22.838Z,50.40
2018-06-23T09:52:54.509Z,53.30
2018-06-23T09:54:25.978Z,51.50
2018-06-23T09:55:57.589Z,48.20
2018-06-23T09:57:29.118Z,44.20
2018-06-23T09:59:00.788Z,40.70
2018-06-23T10:00:32.284Z,37.00
2018-06-23T10:02:03.828Z,38.50
2018-06-23T10:03:35.398Z,36.00
2018-06-23T10:05:06.968Z,35.20
2018-06-23T10:06:38.537Z,36.70
2018-06-23T10:08:10.110Z,34.60
2018-06-23T10:09:41.677Z,34.20
2018-06-23T10:11:13.550Z,32.70
2018-06-23T10:12:44.821Z,36.60
2018-06-23T10:15:49.502Z,34.60
2018-06-23T10:18:51.304Z,39.60
2018-06-23T10:20:23.578Z,38.00
2018-06-23T10:21:54.240Z,48.80
2018-06-23T10:23:25.990Z,58.70
2018-06-23T10:24:57.384Z,77.80
2018-06-23T10:26:28.953Z,61.80
2018-06-23T10:28:00.523Z,57.40
2018-06-23T10:29:32.094Z,53.60
2018-06-23T10:31:03.664Z,46.30
2018-06-23T10:32:35.236Z,48.60
2018-06-23T10:34:06.806Z,45.60
2018-06-23T10:35:38.377Z,50.20
2018-06-23T10:37:10.206Z,46.40
2018-06-23T10:38:41.524Z,61.20
2018-06-23T10:40:13.090Z,50.80
2018-06-23T10:41:44.663Z,48.80
2018-06-23T10:43:16.231Z,47.90
2018-06-23T10:44:47.803Z,42.00
2018-06-23T10:47:51.455Z,55.90
2018-06-23T10:49:22.517Z,48.60
2018-06-23T10:55:29.054Z,49.30
2018-06-23T10:58:31.948Z,48.10
2018-06-23T11:01:35.698Z,46.10
2018-06-23T11:03:06.664Z,46.70
2018-06-23T11:04:38.331Z,48.20
2018-06-23T11:06:09.807Z,44.60
2018-06-23T11:07:41.379Z,49.20
2018-06-23T11:09:14.091Z,43.60
2018-06-23T11:12:16.096Z,43.80
2018-06-23T11:13:47.768Z,40.90
2018-06-23T11:15:19.239Z,41.00
2018-06-23T11:16:50.812Z,34.30
2018-06-23T11:18:22.693Z,38.50
2018-06-23T11:19:53.956Z,33.50
2018-06-23T11:21:25.531Z,32.90
2018-06-23T11:22:57.304Z,30.70
2018-06-23T11:24:28.712Z,31.40
2018-06-23T11:27:32.153Z,30.50
2018-06-23T11:29:03.393Z,28.80
2018-06-23T11:30:35.168Z,30.10
2018-06-23T11:32:06.813Z,35.50
2018-06-23T11:33:39.048Z,29.10
2018-06-23T11:35:09.688Z,29.30
2018-06-23T11:36:42.807Z,29.40
2018-06-23T11:38:12.835Z,28.40
2018-06-23T11:41:16.039Z,25.50
2018-06-23T11:42:47.864Z,25.50
2018-06-23T11:45:50.711Z,23.10
2018-06-23T11:47:22.819Z,23.70
2018-06-23T11:50:26.046Z,22.70
2018-06-23T11:51:57.014Z,21.40
2018-06-23T11:56:32.192Z,22.40
2018-06-23T11:58:03.516Z,22.50
2018-06-23T11:59:35.194Z,23.20
2018-06-23T12:01:06.463Z,23.20
2018-06-23T12:02:38.039Z,21.70
2018-06-23T12:04:09.614Z,22.50
2018-06-23T12:07:12.763Z,22.50
2018-06-23T12:08:44.339Z,22.90
2018-06-23T12:10:15.912Z,22.10
2018-06-23T12:11:47.487Z,21.20
2018-06-23T12:13:19.367Z,20.10
2018-06-23T12:17:53.988Z,20.20
2018-06-23T12:19:25.902Z,22.50
2018-06-23T12:20:56.938Z,20.80
2018-06-23T12:24:00.294Z,21.90
2018-06-23T12:25:31.680Z,22.20
2018-06-23T12:27:03.243Z,21.50
2018-06-23T12:28:35.121Z,22.70
2018-06-23T12:30:07.025Z,22.30
2018-06-23T12:31:37.968Z,22.00
2018-06-23T12:33:09.547Z,22.20
2018-06-23T12:36:13.331Z,22.00
2018-06-23T12:39:15.849Z,19.70
2018-06-23T12:40:47.438Z,21.80
2018-06-23T12:42:19.738Z,21.40
2018-06-23T12:43:51.113Z,21.10
2018-06-23T12:45:22.156Z,19.40
2018-06-23T12:46:53.734Z,21.30
2018-06-23T12:48:25.642Z,22.30
2018-06-23T12:49:57.625Z,23.20
2018-06-23T12:53:00.349Z,22.30
2018-06-23T12:54:31.729Z,21.00
2018-06-23T12:56:03.733Z,20.70
2018-06-23T12:57:34.779Z,23.30
2018-06-23T13:00:38.034Z,22.00
2018-06-23T13:02:09.510Z,21.60
2018-06-23T13:03:41.089Z,21.90
2018-06-23T13:05:12.669Z,22.30
2018-06-23T13:06:44.456Z,20.70
2018-06-23T13:08:15.857Z,22.10
2018-06-23T13:09:47.604Z,21.30
2018-06-23T13:11:18.984Z,20.10
2018-06-23T13:12:50.915Z,18.60
2018-06-23T13:14:22.679Z,18.70
2018-06-23T13:17:26.501Z,18.80
2018-06-23T13:18:57.191Z,19.00
2018-06-23T13:22:00.254Z,19.70
2018-06-23T13:23:31.629Z,19.90
2018-06-23T13:25:03.345Z,18.20
2018-06-23T13:28:06.416Z,18.50
2018-06-23T13:31:10.754Z,19.30
2018-06-23T13:32:41.650Z,17.90
2018-06-23T13:34:12.908Z,17.20
2018-06-23T13:35:44.301Z,17.10
2018-06-23T13:37:16.168Z,16.70
2018-06-23T13:38:47.446Z,15.70
2018-06-23T13:43:22.194Z,14.90
2018-06-23T13:46:25.362Z,16.60
2018-06-23T13:47:56.940Z,15.80
2018-06-23T13:49:28.623Z,15.40
2018-06-23T13:51:00.107Z,15.70
2018-06-23T13:54:03.275Z,14.30
2018-06-23T13:57:06.639Z,14.00
2018-06-23T13:58:38.028Z,13.80
2018-06-23T14:00:09.604Z,13.90
2018-06-23T14:03:12.941Z,15.00
2018-06-23T14:04:44.657Z,14.70
2018-06-23T14:06:16.137Z,15.10
2018-06-23T14:07:47.519Z,14.90
2018-06-23T14:09:19.202Z,16.70
2018-06-23T14:10:50.685Z,16.00
2018-06-23T14:13:53.851Z,13.30
2018-06-23T14:15:25.637Z,14.40
2018-06-23T14:16:57.018Z,14.30
2018-06-23T14:18:28.602Z,15.40
2018-06-23T14:20:00.184Z,15.80
2018-06-23T14:23:03.574Z,15.60
2018-06-23T14:24:34.933Z,15.30
2018-06-23T14:26:06.521Z,15.10
2018-06-23T14:27:38.303Z,13.20
2018-06-23T14:29:10.587Z,13.60
2018-06-23T14:30:41.569Z,16.70
2018-06-23T14:32:13.600Z,14.80
2018-06-23T14:33:44.432Z,13.30
2018-06-23T14:36:47.600Z,12.90
2018-06-23T14:38:19.219Z,14.30
2018-06-23T14:41:22.352Z,12.70
2018-06-23T14:42:53.936Z,11.90
2018-06-23T14:44:25.824Z,13.80
2018-06-23T14:45:57.306Z,12.70
2018-06-23T14:47:28.693Z,12.40
2018-06-23T14:49:00.374Z,12.80
2018-06-23T14:50:31.856Z,12.50
2018-06-23T14:52:03.440Z,12.80
2018-06-23T14:53:35.024Z,13.10
2018-06-23T14:55:06.606Z,14.10
2018-06-23T14:56:38.192Z,13.00
2018-06-23T14:58:09.777Z,14.10
2018-06-23T14:59:41.562Z,12.90
2018-06-23T15:01:12.939Z,11.90
2018-06-23T15:02:44.527Z,11.90
2018-06-23T15:04:16.845Z,14.50
2018-06-23T15:05:49.241Z,15.00
2018-06-23T15:07:19.375Z,15.50
2018-06-23T15:08:50.860Z,15.60
2018-06-23T15:10:22.443Z,15.70
2018-06-23T15:11:54.535Z,15.20
2018-06-23T15:13:25.622Z,14.50
2018-06-23T15:16:28.880Z,14.10
2018-06-23T15:18:00.365Z,13.20
2018-06-23T15:21:03.534Z,14.00
2018-06-23T15:22:35.321Z,12.20
2018-06-23T15:24:06.704Z,12.90
2018-06-23T15:25:38.289Z,14.30
2018-06-23T15:27:09.976Z,15.00
2018-06-23T15:30:13.050Z,14.60
2018-06-23T15:33:16.417Z,14.70
2018-06-23T15:34:47.801Z,13.80
2018-06-23T15:36:19.381Z,14.60
2018-06-23T15:37:50.965Z,14.10
2018-06-23T15:39:22.752Z,14.00
2018-06-23T15:40:54.341Z,13.40
2018-06-23T15:43:57.337Z,12.10
2018-06-23T15:45:29.345Z,11.90
2018-06-23T15:47:00.825Z,12.30
2018-06-23T15:48:32.058Z,13.30
2018-06-23T15:50:03.646Z,12.70
2018-06-23T15:51:35.583Z,10.10
2018-06-23T15:53:06.912Z,8.80
2018-06-23T15:54:38.600Z,10.00
2018-06-23T15:56:10.574Z,7.30
2018-06-23T16:00:45.143Z,4.20
2018-06-23T16:02:16.323Z,3.90
2018-06-23T16:03:48.516Z,3.60
2018-06-23T16:06:51.079Z,4.70
2018-06-23T16:08:23.197Z,4.50
2018-06-23T16:09:54.250Z,3.60
2018-06-23T16:14:29.103Z,3.90
2018-06-23T16:16:00.589Z,3.60
2018-06-23T16:17:32.172Z,3.40
2018-06-23T16:19:03.757Z,3.90
2018-06-23T16:20:35.745Z,4.00
2018-06-23T16:22:07.233Z,4.50
2018-06-23T16:23:38.513Z,4.10
2018-06-23T16:25:10.097Z,4.10
2018-06-23T16:26:41.883Z,4.60
2018-06-23T16:28:13.266Z,4.20
2018-06-23T16:29:45.358Z,4.90
2018-06-23T16:32:48.021Z,4.70
2018-06-23T16:34:19.809Z,4.60
2018-06-23T16:40:26.358Z,3.20
2018-06-23T16:41:57.574Z,3.30
2018-06-23T16:43:29.431Z,3.40
2018-06-23T16:46:32.287Z,3.00
2018-06-23T16:48:04.406Z,2.90
2018-06-23T16:49:35.457Z,3.10
2018-06-23T16:51:07.244Z,3.30
2018-06-23T16:52:38.626Z,3.60
2018-06-23T16:54:10.414Z,3.20
2018-06-23T16:55:41.797Z,2.20
2018-06-23T16:57:13.586Z,2.70
2018-06-23T16:58:45.065Z,2.40
2018-06-23T17:00:16.549Z,2.50
2018-06-23T17:01:48.133Z,2.60
2018-06-23T17:04:51.314Z,2.70
2018-06-23T17:06:23.422Z,2.30
2018-06-23T17:07:54.472Z,2.50
2018-06-23T17:10:57.644Z,2.60
2018-06-23T17:12:29.226Z,2.50
2018-06-23T17:14:01.344Z,2.50
2018-06-23T17:18:35.866Z,2.60
2018-06-23T17:21:38.732Z,2.30
2018-06-23T17:24:42.435Z,2.80
2018-06-23T17:26:13.691Z,3.00
2018-06-23T17:29:16.654Z,2.90
2018-06-23T17:32:19.821Z,2.40
2018-06-23T17:33:51.407Z,3.00
2018-06-23T17:35:22.992Z,2.70
2018-06-23T17:36:54.573Z,2.80
2018-06-23T17:41:29.645Z,2.80
2018-06-23T17:43:01.441Z,3.40
2018-06-23T17:44:32.491Z,2.50
2018-06-23T17:47:36.293Z,3.40
2018-06-23T17:50:39.030Z,3.30
2018-06-23T17:52:10.411Z,3.20
2018-06-23T17:53:41.994Z,3.20
2018-06-23T17:55:13.578Z,3.30
2018-06-23T17:58:16.745Z,3.20
2018-06-23T18:01:20.017Z,3.20
2018-06-23T18:04:23.517Z,3.80
2018-06-23T18:05:54.663Z,3.00
2018-06-23T18:07:26.246Z,2.80
2018-06-23T18:08:57.829Z,2.90
2018-06-23T18:10:29.618Z,3.00
2018-06-23T18:12:00.999Z,2.70
2018-06-23T18:13:32.583Z,3.40
2018-06-23T18:15:04.164Z,2.70
2018-06-23T18:18:07.336Z,3.00
2018-06-23T18:19:39.012Z,3.20
2018-06-23T18:25:45.242Z,3.40
2018-06-23T18:27:17.359Z,3.30
2018-06-23T18:28:48.407Z,2.70
2018-06-23T18:30:19.988Z,3.20
2018-06-23T18:31:51.570Z,2.90
2018-06-23T18:34:54.734Z,3.00
2018-06-23T18:36:26.316Z,3.40
2018-06-23T18:37:58.098Z,3.30
2018-06-23T18:41:01.064Z,3.10
2018-06-23T18:44:04.426Z,3.20
2018-06-23T18:45:36.012Z,2.90
2018-06-23T18:47:07.389Z,5.00
2018-06-23T18:48:39.476Z,3.90
2018-06-23T18:50:10.550Z,3.40
2018-06-23T18:51:42.137Z,2.90
2018-06-23T18:53:13.717Z,3.30
2018-06-23T18:54:45.295Z,2.90
2018-06-23T18:56:16.978Z,3.30
2018-06-23T18:57:48.459Z,3.00
2018-06-23T18:59:20.041Z,3.70
2018-06-23T19:00:52.156Z,3.20
2018-06-23T19:02:23.412Z,3.20
2018-06-23T19:03:54.787Z,3.10
2018-06-23T19:05:26.369Z,3.00
2018-06-23T19:06:57.949Z,3.20
2018-06-23T19:08:29.633Z,3.20
2018-06-23T19:11:32.693Z,3.00
2018-06-23T19:13:04.276Z,3.40
2018-06-23T19:14:35.956Z,3.20
2018-06-23T19:16:07.439Z,3.00
2018-06-23T19:17:39.019Z,3.60
2018-06-23T19:19:10.600Z,3.40
2018-06-23T19:20:42.182Z,3.20
2018-06-23T19:22:13.762Z,3.60
2018-06-23T19:23:45.344Z,3.40
2018-06-23T19:25:17.456Z,3.40
2018-06-23T19:26:48.505Z,3.60
2018-06-23T19:28:20.291Z,3.50
2018-06-23T19:29:51.668Z,4.40
2018-06-23T19:32:54.931Z,3.40
2018-06-23T19:34:26.412Z,3.30
2018-06-23T19:35:58.216Z,3.60
2018-06-23T19:37:29.995Z,3.70
2018-06-23T19:40:32.942Z,3.50
2018-06-23T19:42:04.313Z,3.50
2018-06-23T19:45:07.474Z,3.20
2018-06-23T19:46:39.055Z,4.00
2018-06-23T19:48:10.637Z,3.40
2018-06-23T19:49:42.221Z,3.50
2018-06-23T19:51:13.795Z,3.10
2018-06-23T19:52:45.480Z,4.30
2018-06-23T19:54:16.955Z,3.50
2018-06-23T19:55:48.535Z,3.90
2018-06-23T19:57:20.707Z,3.50
2018-06-23T19:58:51.704Z,4.10
2018-06-23T20:00:23.274Z,3.40
2018-06-23T20:01:55.385Z,3.80
2018-06-23T20:04:58.012Z,3.70
2018-06-23T20:06:29.591Z,4.30
2018-06-23T20:08:01.169Z,4.40
2018-06-23T20:09:32.750Z,4.60
2018-06-23T20:11:04.429Z,4.20
2018-06-23T20:12:35.907Z,4.00
2018-06-23T20:15:39.266Z,4.00
2018-06-23T20:17:10.641Z,3.80
2018-06-23T20:18:42.219Z,4.20
2018-06-23T20:20:13.798Z,4.10
2018-06-23T20:21:45.577Z,4.00
2018-06-23T20:23:16.955Z,4.30
2018-06-23T20:24:48.531Z,4.00
2018-06-23T20:26:20.109Z,4.70
2018-06-23T20:27:51.687Z,4.30
2018-06-23T20:29:23.416Z,4.30
2018-06-23T20:30:54.843Z,4.30
2018-06-23T20:32:26.418Z,4.70
2018-06-23T20:33:57.997Z,4.90
2018-06-23T20:35:29.672Z,4.80
2018-06-23T20:37:01.149Z,4.90
2018-06-23T20:38:32.726Z,5.10
2018-06-23T20:40:04.304Z,5.20
2018-06-23T20:41:35.881Z,5.60
2018-06-23T20:43:07.455Z,6.10
2018-06-23T20:44:39.031Z,6.00
2018-06-23T20:46:10.608Z,6.50
2018-06-23T20:47:42.283Z,6.30
2018-06-23T20:49:13.760Z,6.20
2018-06-23T20:50:45.336Z,6.90
2018-06-23T20:52:16.911Z,6.40
2018-06-23T20:53:48.486Z,6.10
2018-06-23T20:55:20.062Z,5.90
2018-06-23T20:56:51.637Z,6.70
2018-06-23T20:58:23.212Z,6.70
2018-06-23T20:59:54.788Z,5.80
2018-06-23T21:01:26.365Z,6.80
2018-06-23T21:02:57.938Z,7.20
2018-06-23T21:04:29.516Z,6.80
2018-06-23T21:06:01.188Z,6.40
2018-06-23T21:07:32.663Z,6.90
2018-06-23T21:09:04.238Z,6.80
2018-06-23T21:10:35.812Z,7.20
2018-06-23T21:12:07.387Z,6.20
2018-06-23T21:13:38.965Z,5.40
2018-06-23T21:15:10.537Z,5.70
2018-06-23T21:16:42.111Z,5.70
2018-06-23T21:18:13.688Z,6.40
2018-06-23T21:19:45.259Z,5.90
2018-06-23T21:21:16.834Z,6.30
2018-06-23T21:22:48.408Z,6.00
2018-06-23T21:24:20.082Z,6.80
2018-06-23T21:25:51.557Z,6.80
2018-06-23T21:27:23.134Z,7.00
2018-06-23T21:28:54.704Z,6.30
2018-06-23T21:30:26.378Z,6.50
2018-06-23T21:31:57.853Z,6.70
2018-06-23T21:33:29.427Z,7.10
2018-06-23T21:35:01.057Z,7.50
2018-06-23T21:36:32.577Z,7.50
2018-06-23T21:38:04.148Z,7.40
2018-06-23T21:39:35.722Z,8.20
2018-06-23T21:41:07.296Z,7.80
2018-06-23T21:42:38.969Z,7.30
2018-06-23T21:44:10.443Z,8.00
2018-06-23T21:45:42.016Z,8.20
2018-06-23T21:47:13.590Z,9.20